Time;durP1;ratioP1;P1;durP2;ratioP2;P2;SDS_P1;SDS_P2;PMS_P1;PMS_P2;Temp;Humidity;BMP_temperature;BMP_pressure;BME280_temperature;BME280_humidity;BME280_pressure;Samples;Min_cycle;Max_cycle;Signal;HPM_P1;HPM_P2
2023/06/03 00:00:52;;;;;;;5.07;1.00;;;;;;;;;;5107499;28;20456;-82
2023/06/03 00:03:20;;;;;;;4.13;1.20;;;;;;;;;;5107705;28;20506;-82
2023/06/03 00:05:47;;;;;;;2.53;1.20;;;;;;;;;;5109102;28;20475;-82
2023/06/03 00:08:15;;;;;;;3.57;1.30;;;;;;;;;;5108492;28;20456;-82
2023/06/03 00:10:42;;;;;;;3.00;1.30;;;;;;;;;;5109438;28;20456;-82
2023/06/03 00:13:11;;;;;;;2.73;0.83;;;;;;;;;;5112152;28;20511;-83
2023/06/03 00:15:38;;;;;;;6.03;2.33;;;;;;;;;;5108580;28;20509;-83
2023/06/03 00:18:06;;;;;;;2.03;0.90;;;;;;;;;;5110525;28;20461;-84
2023/06/03 00:20:36;;;;;;;4.27;1.23;;;;;;;;;;5109512;28;20450;-80
2023/06/03 00:23:03;;;;;;;4.13;1.03;;;;;;;;;;5106414;28;20617;-82
2023/06/03 00:25:32;;;;;;;3.90;1.30;;;;;;;;;;5084039;28;20714;-83
2023/06/03 00:28:00;;;;;;;2.40;1.20;;;;;;;;;;5084517;28;20555;-82
2023/06/03 00:30:31;;;;;;;3.07;1.27;;;;;;;;;;5085044;28;20570;-81
2023/06/03 00:32:58;;;;;;;2.23;0.73;;;;;;;;;;5085472;28;20868;-81
2023/06/03 00:35:26;;;;;;;2.90;1.50;;;;;;;;;;5089190;28;20473;-82
2023/06/03 00:37:53;;;;;;;3.20;1.30;;;;;;;;;;5090561;28;20455;-82
2023/06/03 00:40:21;;;;;;;2.33;0.83;;;;;;;;;;5091794;28;20445;-82
2023/06/03 00:42:49;;;;;;;2.13;1.20;;;;;;;;;;5090024;28;20520;-81
2023/06/03 00:45:16;;;;;;;3.33;1.50;;;;;;;;;;5092442;28;20461;-82
2023/06/03 00:47:45;;;;;;;3.87;1.10;;;;;;;;;;5092179;28;20448;-81
2023/06/03 00:50:13;;;;;;;2.83;1.20;;;;;;;;;;5086623;28;20453;-82
2023/06/03 00:52:43;;;;;;;4.17;1.97;;;;;;;;;;5105783;28;20432;-81
2023/06/03 00:55:11;;;;;;;2.37;1.00;;;;;;;;;;5102533;28;20988;-82
2023/06/03 00:57:38;;;;;;;3.63;1.10;;;;;;;;;;5102277;28;20892;-81
2023/06/03 01:00:09;;;;;;;2.60;1.07;;;;;;;;;;5107061;28;20474;-83
2023/06/03 01:02:43;;;;;;;3.10;0.97;;;;;;;;;;5103236;28;20487;-81
2023/06/03 01:05:12;;;;;;;2.60;1.27;;;;;;;;;;5108419;28;20497;-82
2023/06/03 01:07:46;;;;;;;5.13;1.30;;;;;;;;;;5104839;28;20440;-81
2023/06/03 01:10:17;;;;;;;3.13;1.50;;;;;;;;;;5110754;28;20843;-81
2023/06/03 01:12:48;;;;;;;2.57;1.30;;;;;;;;;;5109834;28;20519;-81
2023/06/03 01:15:20;;;;;;;2.10;1.00;;;;;;;;;;5111492;28;20445;-81
2023/06/03 01:17:50;;;;;;;3.43;1.37;;;;;;;;;;5109456;28;20918;-83
2023/06/03 01:20:19;;;;;;;2.83;1.70;;;;;;;;;;5112201;28;20440;-82
2023/06/03 01:22:51;;;;;;;3.87;1.70;;;;;;;;;;5109654;28;20487;-83
2023/06/03 01:25:20;;;;;;;4.13;1.60;;;;;;;;;;5110014;28;20468;-83
2023/06/03 01:27:51;;;;;;;3.63;1.53;;;;;;;;;;5105961;28;20459;-83
2023/06/03 01:30:19;;;;;;;5.10;1.80;;;;;;;;;;5106996;28;20504;-82
2023/06/03 01:32:49;;;;;;;3.37;1.80;;;;;;;;;;5109398;28;20451;-81
2023/06/03 01:35:16;;;;;;;5.57;1.20;;;;;;;;;;5106115;28;20463;-81
2023/06/03 01:37:44;;;;;;;5.83;1.70;;;;;;;;;;5111979;28;20738;-82
2023/06/03 01:40:14;;;;;;;4.13;1.43;;;;;;;;;;5113019;28;20704;-81
2023/06/03 01:42:43;;;;;;;4.80;1.37;;;;;;;;;;5114435;28;20480;-84
2023/06/03 01:45:10;;;;;;;3.67;1.33;;;;;;;;;;5114392;28;20459;-83
2023/06/03 01:47:38;;;;;;;4.50;1.13;;;;;;;;;;5113158;28;20456;-81
2023/06/03 01:52:50;;;;;;;4.90;1.30;;;;;;;;;;5104373;28;20463;-81
2023/06/03 01:55:18;;;;;;;4.73;1.53;;;;;;;;;;5106748;28;20463;-82
2023/06/03 01:57:49;;;;;;;4.13;1.50;;;;;;;;;;5107896;28;20800;-83
2023/06/03 02:00:17;;;;;;;3.53;1.30;;;;;;;;;;5108319;28;20451;-85
2023/06/03 02:02:46;;;;;;;3.50;1.20;;;;;;;;;;5107670;28;20483;-82
2023/06/03 02:05:13;;;;;;;2.97;1.33;;;;;;;;;;5107528;28;20455;-82
2023/06/03 02:07:43;;;;;;;2.43;1.20;;;;;;;;;;5106956;28;20476;-81
2023/06/03 02:10:11;;;;;;;3.00;1.43;;;;;;;;;;5103673;28;20482;-83
2023/06/03 02:12:38;;;;;;;3.17;1.40;;;;;;;;;;5105020;28;20782;-84
2023/06/03 02:15:08;;;;;;;3.40;1.60;;;;;;;;;;5108196;28;20459;-82
2023/06/03 02:17:36;;;;;;;4.07;1.23;;;;;;;;;;5105474;28;20517;-82
2023/06/03 02:20:09;;;;;;;1.90;1.00;;;;;;;;;;5107360;28;20475;-83
2023/06/03 02:22:37;;;;;;;4.70;1.80;;;;;;;;;;5108014;28;20604;-80
2023/06/03 02:25:06;;;;;;;4.57;1.70;;;;;;;;;;5107832;28;20452;-83
2023/06/03 02:27:33;;;;;;;1.50;0.87;;;;;;;;;;5110131;28;20452;-83
2023/06/03 02:30:00;;;;;;;1.90;0.90;;;;;;;;;;5112301;28;20575;-82
2023/06/03 02:32:29;;;;;;;2.50;1.20;;;;;;;;;;5112681;28;20456;-84
2023/06/03 02:34:56;;;;;;;5.93;1.33;;;;;;;;;;5112179;28;20533;-81
2023/06/03 02:37:24;;;;;;;2.20;1.37;;;;;;;;;;5112658;28;20456;-81
2023/06/03 02:39:51;;;;;;;5.50;1.57;;;;;;;;;;5110652;28;20435;-83
2023/06/03 02:42:20;;;;;;;2.70;0.90;;;;;;;;;;5107474;28;20708;-82
2023/06/03 02:44:48;;;;;;;3.33;1.53;;;;;;;;;;5109251;28;20486;-83
2023/06/03 02:47:15;;;;;;;3.00;1.37;;;;;;;;;;5108947;28;20466;-82
2023/06/03 02:49:45;;;;;;;2.83;1.30;;;;;;;;;;5109082;28;20456;-82
2023/06/03 02:52:12;;;;;;;2.50;1.23;;;;;;;;;;5113423;28;20463;-84
2023/06/03 02:54:39;;;;;;;2.87;1.23;;;;;;;;;;5107047;28;20931;-82
2023/06/03 02:57:08;;;;;;;2.47;1.30;;;;;;;;;;5110145;28;20467;-81
2023/06/03 02:59:37;;;;;;;4.40;1.30;;;;;;;;;;5108491;28;20448;-82
2023/06/03 03:02:05;;;;;;;4.87;1.20;;;;;;;;;;5106095;28;20452;-80
2023/06/03 03:04:36;;;;;;;2.53;1.13;;;;;;;;;;5108396;28;20551;-81
2023/06/03 03:07:07;;;;;;;3.00;1.37;;;;;;;;;;5104221;28;20456;-82
2023/06/03 03:09:34;;;;;;;3.63;1.43;;;;;;;;;;5107054;28;20447;-81
2023/06/03 03:12:02;;;;;;;2.50;1.17;;;;;;;;;;5102646;28;20739;-82
2023/06/03 03:14:30;;;;;;;2.10;0.93;;;;;;;;;;5105971;28;20887;-83
2023/06/03 03:16:57;;;;;;;4.80;1.40;;;;;;;;;;5105698;28;20471;-84
2023/06/03 03:19:26;;;;;;;5.40;1.60;;;;;;;;;;5106376;28;20494;-81
2023/06/03 03:21:53;;;;;;;3.27;1.43;;;;;;;;;;5110507;28;20428;-81
2023/06/03 03:24:22;;;;;;;2.70;1.60;;;;;;;;;;5109473;28;20557;-82
2023/06/03 03:26:49;;;;;;;3.33;1.40;;;;;;;;;;5111120;28;20872;-83
2023/06/03 03:29:17;;;;;;;4.13;1.13;;;;;;;;;;5105587;28;20452;-82
2023/06/03 03:31:45;;;;;;;3.17;1.57;;;;;;;;;;5104319;28;20844;-82
2023/06/03 03:34:14;;;;;;;4.23;1.80;;;;;;;;;;5105641;28;20449;-82
2023/06/03 03:36:45;;;;;;;3.80;2.00;;;;;;;;;;5103350;28;20451;-83
2023/06/03 03:39:13;;;;;;;2.20;1.10;;;;;;;;;;5106230;28;20515;-82
2023/06/03 03:41:45;;;;;;;5.03;1.30;;;;;;;;;;5106122;28;20872;-81
2023/06/03 03:44:13;;;;;;;2.77;1.63;;;;;;;;;;5106960;28;20475;-82
2023/06/03 03:46:42;;;;;;;3.70;1.30;;;;;;;;;;5110707;28;20453;-81
2023/06/03 03:49:11;;;;;;;2.70;1.50;;;;;;;;;;5110414;28;20452;-81
2023/06/03 03:51:38;;;;;;;3.23;1.20;;;;;;;;;;5110250;28;20437;-83
2023/06/03 03:54:05;;;;;;;2.47;1.30;;;;;;;;;;5104626;28;20452;-80
2023/06/03 03:56:34;;;;;;;5.07;1.40;;;;;;;;;;5102545;28;20479;-83
2023/06/03 03:59:07;;;;;;;4.03;1.10;;;;;;;;;;5108320;28;20493;-83
2023/06/03 04:01:39;;;;;;;2.50;1.10;;;;;;;;;;5109119;28;20499;-82
2023/06/03 04:04:07;;;;;;;4.00;1.40;;;;;;;;;;5105613;28;20472;-82
2023/06/03 04:06:36;;;;;;;5.63;1.60;;;;;;;;;;5111826;28;20452;-82
2023/06/03 04:09:05;;;;;;;5.20;1.90;;;;;;;;;;5107356;28;20729;-81
2023/06/03 04:11:37;;;;;;;3.00;1.47;;;;;;;;;;5110263;28;20509;-81
2023/06/03 04:14:08;;;;;;;2.83;1.57;;;;;;;;;;5106340;28;20484;-83
2023/06/03 04:16:44;;;;;;;3.93;1.63;;;;;;;;;;5108200;28;20456;-82
2023/06/03 04:19:14;;;;;;;3.37;1.30;;;;;;;;;;5101013;28;20460;-82
2023/06/03 04:21:42;;;;;;;3.20;1.47;;;;;;;;;;5100137;28;20480;-81
2023/06/03 04:24:09;;;;;;;2.90;1.30;;;;;;;;;;5105898;28;20475;-82
2023/06/03 04:26:37;;;;;;;2.60;1.50;;;;;;;;;;5105686;28;20456;-81
2023/06/03 04:29:06;;;;;;;3.10;1.00;;;;;;;;;;5106351;28;20433;-82
2023/06/03 04:31:33;;;;;;;2.33;1.50;;;;;;;;;;5102651;28;20539;-82
2023/06/03 04:34:01;;;;;;;3.43;1.87;;;;;;;;;;5105069;28;20452;-83
2023/06/03 04:36:29;;;;;;;3.93;1.60;;;;;;;;;;5105191;28;20961;-81
2023/06/03 04:38:58;;;;;;;3.07;1.73;;;;;;;;;;5104453;28;20476;-81
2023/06/03 04:41:27;;;;;;;3.23;1.90;;;;;;;;;;5106398;28;20447;-79
2023/06/03 04:43:55;;;;;;;2.27;1.30;;;;;;;;;;5103351;28;20484;-82
2023/06/03 04:46:29;;;;;;;2.93;1.10;;;;;;;;;;5106463;28;20460;-83
2023/06/03 04:48:57;;;;;;;4.37;1.90;;;;;;;;;;5109062;28;20459;-81
2023/06/03 04:51:27;;;;;;;4.33;1.80;;;;;;;;;;5108652;28;20444;-82
2023/06/03 04:53:56;;;;;;;2.67;1.33;;;;;;;;;;5109455;28;20464;-83
2023/06/03 04:56:24;;;;;;;4.77;1.90;;;;;;;;;;5111369;28;20528;-82
2023/06/03 04:58:54;;;;;;;3.07;1.20;;;;;;;;;;5111110;28;20458;-82
2023/06/03 05:01:24;;;;;;;4.40;1.53;;;;;;;;;;5110634;28;20471;-83
2023/06/03 05:03:52;;;;;;;3.70;1.70;;;;;;;;;;5110822;28;20559;-82
2023/06/03 05:06:19;;;;;;;4.97;1.43;;;;;;;;;;5110385;28;20459;-83
2023/06/03 05:08:47;;;;;;;3.20;1.30;;;;;;;;;;5112156;28;20455;-81
2023/06/03 05:11:15;;;;;;;3.10;1.50;;;;;;;;;;5109571;28;20452;-83
2023/06/03 05:13:43;;;;;;;3.00;1.33;;;;;;;;;;5111455;28;20867;-80
2023/06/03 05:16:10;;;;;;;4.43;1.30;;;;;;;;;;5111591;28;21250;-82
2023/06/03 05:18:40;;;;;;;3.50;1.43;;;;;;;;;;5113134;28;20459;-82
2023/06/03 05:21:09;;;;;;;4.93;1.57;;;;;;;;;;5108340;28;20520;-81
2023/06/03 05:23:37;;;;;;;5.37;1.80;;;;;;;;;;5110397;28;20568;-83
2023/06/03 05:26:08;;;;;;;5.13;1.90;;;;;;;;;;5104889;28;20444;-81
2023/06/03 05:28:36;;;;;;;4.77;1.77;;;;;;;;;;5112083;28;20542;-82
2023/06/03 05:31:03;;;;;;;5.30;1.57;;;;;;;;;;5110240;28;20544;-83
2023/06/03 05:33:31;;;;;;;6.00;1.70;;;;;;;;;;5114386;28;20456;-82
2023/06/03 05:36:00;;;;;;;4.80;1.50;;;;;;;;;;5113406;28;20448;-83
2023/06/03 05:38:30;;;;;;;3.70;1.17;;;;;;;;;;5113177;28;20448;-84
2023/06/03 05:41:00;;;;;;;5.67;1.80;;;;;;;;;;5110839;28;20578;-82
2023/06/03 05:45:53;;;;;;;4.50;1.20;;;;;;;;;;5091812;22;20495;-84
2023/06/03 05:48:21;;;;;;;4.30;1.40;;;;;;;;;;5076783;28;20268;-81
2023/06/03 05:50:52;;;;;;;4.33;1.00;;;;;;;;;;5074856;28;20465;-80
2023/06/03 05:53:22;;;;;;;3.83;1.00;;;;;;;;;;5056319;28;20469;-81
2023/06/03 05:55:49;;;;;;;3.80;1.20;;;;;;;;;;5059947;28;20438;-82
2023/06/03 05:58:17;;;;;;;3.10;0.80;;;;;;;;;;5073873;28;20445;-81
2023/06/03 06:00:44;;;;;;;3.37;1.00;;;;;;;;;;5073173;28;20491;-83
2023/06/03 06:03:11;;;;;;;2.83;0.87;;;;;;;;;;5065665;28;20759;-79
2023/06/03 06:05:43;;;;;;;5.33;1.50;;;;;;;;;;5049418;28;20457;-82
2023/06/03 06:08:16;;;;;;;3.10;1.00;;;;;;;;;;5059333;28;20512;-82
2023/06/03 06:10:45;;;;;;;5.50;1.23;;;;;;;;;;5060469;28;20466;-81
2023/06/03 06:13:18;;;;;;;2.70;1.10;;;;;;;;;;5055372;28;20450;-82
2023/06/03 06:15:57;;;;;;;3.60;0.87;;;;;;;;;;5066774;28;20442;-84
2023/06/03 06:18:27;;;;;;;4.07;0.80;;;;;;;;;;5068626;28;20744;-82
2023/06/03 06:21:04;;;;;;;2.60;1.00;;;;;;;;;;5064265;28;20435;-79
2023/06/03 06:23:33;;;;;;;3.60;1.13;;;;;;;;;;5055445;28;20502;-80
2023/06/03 06:26:04;;;;;;;2.03;0.90;;;;;;;;;;5068201;28;20464;-81
2023/06/03 06:28:32;;;;;;;2.87;1.00;;;;;;;;;;5068402;28;20547;-81
2023/06/03 06:31:03;;;;;;;2.90;0.90;;;;;;;;;;5067756;28;20458;-80
2023/06/03 06:33:31;;;;;;;1.80;0.67;;;;;;;;;;5062876;28;20572;-81
2023/06/03 06:35:59;;;;;;;3.03;1.17;;;;;;;;;;5050721;28;20871;-80
2023/06/03 06:38:34;;;;;;;3.40;1.00;;;;;;;;;;5068304;28;20453;-83
2023/06/03 06:41:07;;;;;;;1.90;0.70;;;;;;;;;;5056612;28;20541;-81
2023/06/03 06:46:12;;;;;;;2.03;0.80;;;;;;;;;;5256618;22;20506;-83
2023/06/03 06:48:40;;;;;;;2.23;1.00;;;;;;;;;;5045717;28;20466;-84
2023/06/03 06:51:07;;;;;;;3.23;0.93;;;;;;;;;;5046630;28;20455;-79
2023/06/03 06:53:36;;;;;;;2.70;0.70;;;;;;;;;;5044233;28;20783;-82
2023/06/03 06:56:05;;;;;;;2.23;0.90;;;;;;;;;;5044829;28;20447;-81
2023/06/03 06:58:36;;;;;;;2.00;0.70;;;;;;;;;;5047208;28;20489;-81
2023/06/03 07:01:05;;;;;;;2.50;0.80;;;;;;;;;;5032888;28;20524;-82
2023/06/03 07:03:34;;;;;;;2.00;0.80;;;;;;;;;;5045778;28;20533;-82
2023/06/03 07:06:02;;;;;;;3.73;0.90;;;;;;;;;;5050200;28;20458;-82
2023/06/03 07:08:38;;;;;;;1.70;0.60;;;;;;;;;;5048110;28;20458;-81
2023/06/03 07:11:06;;;;;;;1.77;0.60;;;;;;;;;;5067840;28;20491;-81
2023/06/03 07:13:37;;;;;;;5.10;1.00;;;;;;;;;;5058907;28;20486;-80
2023/06/03 07:16:05;;;;;;;10.20;6.93;;;;;;;;;;5034432;28;20451;-81
2023/06/03 07:18:34;;;;;;;3.23;1.50;;;;;;;;;;5050466;28;20458;-81
2023/06/03 07:21:14;;;;;;;2.63;1.13;;;;;;;;;;5049000;28;20451;-81
2023/06/03 07:23:51;;;;;;;2.00;0.80;;;;;;;;;;5037625;28;20486;-81
2023/06/03 07:26:20;;;;;;;2.93;0.93;;;;;;;;;;5033781;28;20463;-80
2023/06/03 07:28:49;;;;;;;1.80;0.63;;;;;;;;;;5027499;28;20443;-82
2023/06/03 07:31:17;;;;;;;2.37;0.70;;;;;;;;;;5043680;28;21003;-80
2023/06/03 07:33:55;;;;;;;2.33;0.90;;;;;;;;;;5048854;28;20545;-82
2023/06/03 07:36:24;;;;;;;2.93;0.80;;;;;;;;;;5045827;28;20954;-81
2023/06/03 07:39:02;;;;;;;2.23;0.70;;;;;;;;;;5050322;28;20467;-82
2023/06/03 07:41:50;;;;;;;2.50;0.90;;;;;;;;;;5044416;28;20458;-79
2023/06/03 07:44:21;;;;;;;2.20;0.90;;;;;;;;;;5041972;28;20491;-80
2023/06/03 07:46:53;;;;;;;2.20;0.80;;;;;;;;;;5061513;28;20514;-80
2023/06/03 07:49:21;;;;;;;3.00;1.10;;;;;;;;;;5039320;28;20462;-81
2023/06/03 07:51:49;;;;;;;3.83;1.50;;;;;;;;;;5041694;28;20466;-82
2023/06/03 07:54:19;;;;;;;2.50;1.37;;;;;;;;;;5044050;28;20494;-82
2023/06/03 07:56:47;;;;;;;3.83;0.73;;;;;;;;;;5034691;28;20474;-79
2023/06/03 07:59:17;;;;;;;3.77;0.80;;;;;;;;;;5042458;28;20855;-81
2023/06/03 08:01:48;;;;;;;1.70;0.70;;;;;;;;;;5043186;28;20497;-83
2023/06/03 08:04:29;;;;;;;2.40;0.70;;;;;;;;;;5041751;28;20482;-80
2023/06/03 08:07:06;;;;;;;2.17;0.87;;;;;;;;;;5041358;28;20471;-83
2023/06/03 08:09:37;;;;;;;5.13;0.97;;;;;;;;;;5044260;28;20548;-82
2023/06/03 08:12:07;;;;;;;2.73;0.83;;;;;;;;;;5036230;28;20467;-83
2023/06/03 08:14:35;;;;;;;3.47;1.00;;;;;;;;;;5039267;28;20455;-81
2023/06/03 08:17:13;;;;;;;3.53;1.10;;;;;;;;;;5038505;28;20536;-82
2023/06/03 08:19:41;;;;;;;1.80;0.70;;;;;;;;;;5040771;28;20455;-81
2023/06/03 08:22:21;;;;;;;2.97;0.87;;;;;;;;;;5040111;28;20470;-82
2023/06/03 08:24:49;;;;;;;2.77;0.90;;;;;;;;;;5035707;28;20501;-81
2023/06/03 08:27:22;;;;;;;4.43;0.90;;;;;;;;;;5048162;28;20496;-81
2023/06/03 08:29:57;;;;;;;2.33;0.80;;;;;;;;;;5047759;28;20553;-80
2023/06/03 08:32:30;;;;;;;14.03;3.63;;;;;;;;;;5038510;28;20534;-79
2023/06/03 08:34:58;;;;;;;2.80;1.23;;;;;;;;;;5041941;28;20470;-82
2023/06/03 08:37:26;;;;;;;2.50;1.23;;;;;;;;;;5041049;28;20447;-84
2023/06/03 08:42:40;;;;;;;4.20;0.93;;;;;;;;;;5035539;28;20478;-80
2023/06/03 08:45:09;;;;;;;2.93;1.30;;;;;;;;;;5038005;28;20482;-81
2023/06/03 08:47:42;;;;;;;2.27;1.03;;;;;;;;;;5039635;28;20474;-81
2023/06/03 08:50:11;;;;;;;5.47;0.80;;;;;;;;;;5037852;28;20454;-81
2023/06/03 08:52:45;;;;;;;2.40;0.80;;;;;;;;;;5040438;28;20526;-81
2023/06/03 08:55:14;;;;;;;3.03;0.77;;;;;;;;;;5038368;28;20435;-80
2023/06/03 08:57:45;;;;;;;3.87;1.20;;;;;;;;;;5044751;28;20481;-80
2023/06/03 09:00:18;;;;;;;3.50;1.17;;;;;;;;;;5040805;28;20451;-81
2023/06/03 09:02:47;;;;;;;2.80;1.03;;;;;;;;;;5043937;28;20451;-79
2023/06/03 09:05:14;;;;;;;9.10;1.30;;;;;;;;;;5041744;28;20624;-80
2023/06/03 09:07:43;;;;;;;4.50;0.90;;;;;;;;;;5043499;28;20445;-82
2023/06/03 09:10:12;;;;;;;2.27;0.83;;;;;;;;;;5025362;28;20491;-81
2023/06/03 09:12:40;;;;;;;2.07;0.87;;;;;;;;;;5022375;28;20451;-80
2023/06/03 09:15:14;;;;;;;2.93;0.70;;;;;;;;;;5021326;28;20467;-80
2023/06/03 09:17:43;;;;;;;2.93;1.57;;;;;;;;;;5041612;28;20810;-80
2023/06/03 09:20:16;;;;;;;2.40;0.90;;;;;;;;;;5044738;28;20451;-82
2023/06/03 09:22:45;;;;;;;2.77;0.70;;;;;;;;;;5044030;28;20457;-79
2023/06/03 09:25:13;;;;;;;2.57;0.73;;;;;;;;;;5043739;28;20482;-80
2023/06/03 09:27:41;;;;;;;2.20;0.70;;;;;;;;;;5042748;28;20883;-81
2023/06/03 09:30:11;;;;;;;2.90;1.00;;;;;;;;;;5045096;28;20505;-81
2023/06/03 09:32:39;;;;;;;3.73;0.93;;;;;;;;;;5035884;28;20985;-80
2023/06/03 09:35:06;;;;;;;2.73;0.87;;;;;;;;;;5044597;28;20455;-80
2023/06/03 09:37:36;;;;;;;2.07;0.60;;;;;;;;;;5042497;28;20453;-81
2023/06/03 09:40:25;;;;;;;2.30;0.70;;;;;;;;;;5041773;28;20463;-81
2023/06/03 09:42:55;;;;;;;2.07;0.73;;;;;;;;;;5043592;28;20489;-80
2023/06/03 09:45:28;;;;;;;1.83;0.63;;;;;;;;;;5047578;28;20552;-81
2023/06/03 09:47:58;;;;;;;2.37;0.90;;;;;;;;;;5047587;28;20873;-81
2023/06/03 09:50:26;;;;;;;3.90;0.90;;;;;;;;;;5046359;28;20451;-81
2023/06/03 09:52:55;;;;;;;2.13;0.80;;;;;;;;;;5047861;28;20447;-80
2023/06/03 09:55:28;;;;;;;2.33;0.80;;;;;;;;;;5045059;28;20856;-81
2023/06/03 09:58:04;;;;;;;2.10;1.00;;;;;;;;;;5041945;28;20466;-80
2023/06/03 10:00:33;;;;;;;2.47;0.80;;;;;;;;;;5043074;28;20522;-80
2023/06/03 10:03:08;;;;;;;3.60;0.87;;;;;;;;;;5048979;28;20461;-80
2023/06/03 10:05:36;;;;;;;2.50;0.80;;;;;;;;;;5045984;28;20488;-78
2023/06/03 10:08:06;;;;;;;3.10;1.70;;;;;;;;;;5047237;28;20475;-82
2023/06/03 10:10:35;;;;;;;2.37;0.73;;;;;;;;;;5043831;28;20517;-80
2023/06/03 10:13:17;;;;;;;3.70;1.40;;;;;;;;;;5042164;28;20565;-79
2023/06/03 10:15:44;;;;;;;2.40;0.87;;;;;;;;;;5042528;28;20463;-78
2023/06/03 10:18:12;;;;;;;2.70;0.60;;;;;;;;;;5044348;28;20462;-80
2023/06/03 10:20:40;;;;;;;2.23;0.60;;;;;;;;;;5043224;28;20535;-81
2023/06/03 10:23:10;;;;;;;2.40;0.80;;;;;;;;;;5041274;28;20546;-82
2023/06/03 10:25:42;;;;;;;3.13;0.80;;;;;;;;;;5045696;28;20483;-82
2023/06/03 10:28:10;;;;;;;2.50;0.90;;;;;;;;;;5045813;28;20467;-80
2023/06/03 10:30:39;;;;;;;3.30;0.90;;;;;;;;;;5045912;28;20482;-84
2023/06/03 10:33:09;;;;;;;4.33;0.70;;;;;;;;;;5045563;28;20463;-80
2023/06/03 10:35:37;;;;;;;2.47;1.00;;;;;;;;;;5047696;28;20526;-80
2023/06/03 10:38:05;;;;;;;2.70;0.90;;;;;;;;;;5045989;28;20446;-80
2023/06/03 10:40:36;;;;;;;3.40;1.50;;;;;;;;;;5046092;28;20757;-80
2023/06/03 10:43:05;;;;;;;2.47;0.60;;;;;;;;;;5045580;28;20934;-79
2023/06/03 10:45:32;;;;;;;2.43;0.90;;;;;;;;;;5043493;28;20613;-80
2023/06/03 10:48:02;;;;;;;2.50;0.70;;;;;;;;;;5045957;28;20506;-79
2023/06/03 10:50:35;;;;;;;4.27;0.90;;;;;;;;;;5045176;28;20509;-79
2023/06/03 10:53:15;;;;;;;2.30;0.70;;;;;;;;;;5052054;28;20443;-81
2023/06/03 10:55:50;;;;;;;3.33;0.70;;;;;;;;;;5061305;28;20451;-81
2023/06/03 10:58:21;;;;;;;2.70;0.90;;;;;;;;;;5045600;28;20454;-80
2023/06/03 11:00:56;;;;;;;3.83;1.03;;;;;;;;;;5030043;28;20467;-80
2023/06/03 11:03:25;;;;;;;4.13;2.43;;;;;;;;;;5044380;28;20482;-80
2023/06/03 11:05:53;;;;;;;4.93;0.77;;;;;;;;;;5040420;28;20482;-80
2023/06/03 11:08:39;;;;;;;4.20;1.10;;;;;;;;;;5045021;28;20516;-81
2023/06/03 11:11:08;;;;;;;3.00;0.83;;;;;;;;;;5045547;28;20482;-80
2023/06/03 11:13:44;;;;;;;2.70;0.93;;;;;;;;;;5046714;28;20451;-81
2023/06/03 11:16:13;;;;;;;2.63;0.80;;;;;;;;;;5046631;28;20889;-81
2023/06/03 11:18:42;;;;;;;4.40;1.00;;;;;;;;;;5042565;28;20477;-82
2023/06/03 11:21:25;;;;;;;2.60;0.60;;;;;;;;;;5042784;28;20482;-82
2023/06/03 11:23:53;;;;;;;2.33;0.70;;;;;;;;;;5044311;28;20518;-81
2023/06/03 11:26:37;;;;;;;7.80;1.17;;;;;;;;;;5047259;28;20494;-81
2023/06/03 11:29:06;;;;;;;3.60;0.90;;;;;;;;;;5047475;28;20510;-81
2023/06/03 11:31:34;;;;;;;3.10;1.20;;;;;;;;;;5042566;28;20494;-79
2023/06/03 11:34:20;;;;;;;3.60;0.80;;;;;;;;;;5042757;28;20452;-81
2023/06/03 11:36:48;;;;;;;3.40;0.73;;;;;;;;;;5039436;28;20755;-81
2023/06/03 11:39:17;;;;;;;5.10;0.70;;;;;;;;;;5045448;28;20889;-79
2023/06/03 11:42:11;;;;;;;5.87;1.00;;;;;;;;;;5040530;28;20762;-82
2023/06/03 11:44:47;;;;;;;3.37;1.30;;;;;;;;;;5038810;28;20470;-80
2023/06/03 11:47:15;;;;;;;6.20;0.90;;;;;;;;;;5041958;28;20490;-79
2023/06/03 11:49:43;;;;;;;3.63;0.83;;;;;;;;;;5043974;28;20862;-80
2023/06/03 11:52:11;;;;;;;2.63;0.70;;;;;;;;;;5043003;28;20454;-81
2023/06/03 11:54:40;;;;;;;4.30;1.20;;;;;;;;;;5041148;28;20463;-80
2023/06/03 11:57:09;;;;;;;2.97;0.90;;;;;;;;;;5033087;28;20469;-78
2023/06/03 11:59:42;;;;;;;3.50;0.80;;;;;;;;;;5043606;28;20455;-82
2023/06/03 12:02:10;;;;;;;2.90;0.70;;;;;;;;;;5040567;28;20497;-80
2023/06/03 12:04:37;;;;;;;2.93;0.70;;;;;;;;;;5022972;28;20523;-79
2023/06/03 12:07:15;;;;;;;4.30;1.30;;;;;;;;;;5044122;28;20480;-81
2023/06/03 12:09:43;;;;;;;3.33;1.13;;;;;;;;;;5044889;28;20522;-79
2023/06/03 12:12:18;;;;;;;3.17;0.90;;;;;;;;;;5044917;28;20811;-81
2023/06/03 12:14:46;;;;;;;3.47;1.30;;;;;;;;;;5039298;28;20445;-81
2023/06/03 12:17:14;;;;;;;3.13;1.20;;;;;;;;;;5043142;28;20451;-83
2023/06/03 12:19:43;;;;;;;2.50;0.60;;;;;;;;;;5045636;28;20451;-81
2023/06/03 12:22:14;;;;;;;2.83;0.73;;;;;;;;;;5040533;28;20455;-80
2023/06/03 12:24:48;;;;;;;7.93;0.93;;;;;;;;;;5048606;28;20503;-82
2023/06/03 12:27:21;;;;;;;2.50;0.60;;;;;;;;;;5043035;28;20482;-79
2023/06/03 12:29:55;;;;;;;4.13;0.80;;;;;;;;;;5040783;28;20462;-80
2023/06/03 12:32:23;;;;;;;7.30;4.70;;;;;;;;;;5043127;28;20466;-80
2023/06/03 12:34:51;;;;;;;3.10;1.00;;;;;;;;;;5042532;28;20471;-80
2023/06/03 12:37:30;;;;;;;2.80;0.70;;;;;;;;;;5042078;28;20471;-79
2023/06/03 12:40:05;;;;;;;3.10;1.10;;;;;;;;;;5037683;28;20455;-79
2023/06/03 12:42:38;;;;;;;3.90;1.00;;;;;;;;;;5029577;28;20503;-81
2023/06/03 12:45:06;;;;;;;2.80;0.70;;;;;;;;;;5023354;28;20463;-82
2023/06/03 12:47:44;;;;;;;2.70;0.70;;;;;;;;;;5039557;28;20453;-82
2023/06/03 12:50:16;;;;;;;2.70;0.80;;;;;;;;;;5032997;28;20558;-80
2023/06/03 12:53:05;;;;;;;2.70;0.70;;;;;;;;;;5036783;28;20459;-82
2023/06/03 12:55:48;;;;;;;3.37;1.27;;;;;;;;;;5037963;28;20509;-82
2023/06/03 12:58:23;;;;;;;3.30;0.67;;;;;;;;;;5039818;28;20526;-83
2023/06/03 13:01:10;;;;;;;3.23;1.10;;;;;;;;;;5041427;28;20489;-83
2023/06/03 13:03:39;;;;;;;3.17;0.77;;;;;;;;;;5036129;28;20516;-83
2023/06/03 13:06:17;;;;;;;3.33;0.83;;;;;;;;;;5045965;28;20482;-82
2023/06/03 13:08:51;;;;;;;3.10;0.80;;;;;;;;;;5045723;28;20485;-81
2023/06/03 13:11:20;;;;;;;3.77;0.90;;;;;;;;;;5036641;28;20484;-79
2023/06/03 13:13:49;;;;;;;4.47;1.70;;;;;;;;;;5041919;28;20589;-81
2023/06/03 13:16:20;;;;;;;5.90;1.27;;;;;;;;;;5028005;28;20447;-81
2023/06/03 13:18:48;;;;;;;3.63;1.00;;;;;;;;;;5046144;28;20455;-80
2023/06/03 13:21:17;;;;;;;3.10;0.80;;;;;;;;;;5045852;28;20478;-81
2023/06/03 13:23:48;;;;;;;3.57;1.00;;;;;;;;;;5047447;28;20529;-81
2023/06/03 13:26:18;;;;;;;3.30;0.93;;;;;;;;;;5043629;28;20500;-79
2023/06/03 13:28:48;;;;;;;3.30;0.90;;;;;;;;;;5045135;28;20758;-81
2023/06/03 13:31:22;;;;;;;5.80;0.73;;;;;;;;;;5046250;28;20447;-82
2023/06/03 13:33:51;;;;;;;3.87;0.90;;;;;;;;;;5043211;28;20454;-83
2023/06/03 13:36:20;;;;;;;3.30;1.03;;;;;;;;;;5027703;28;20454;-82
2023/06/03 13:38:51;;;;;;;4.23;0.93;;;;;;;;;;5045389;28;20454;-81
2023/06/03 13:41:19;;;;;;;3.00;0.90;;;;;;;;;;5040543;28;20578;-83
2023/06/03 13:43:47;;;;;;;2.93;0.90;;;;;;;;;;5043818;28;20532;-81
2023/06/03 13:46:15;;;;;;;3.60;0.97;;;;;;;;;;5038481;28;20490;-81
2023/06/03 13:48:44;;;;;;;4.20;1.40;;;;;;;;;;5040712;28;20460;-79
2023/06/03 13:51:11;;;;;;;3.07;0.90;;;;;;;;;;5043557;28;20462;-79
2023/06/03 13:53:38;;;;;;;3.20;0.80;;;;;;;;;;5040189;28;20457;-81
2023/06/03 13:56:06;;;;;;;2.80;0.63;;;;;;;;;;5042720;28;20466;-80
2023/06/03 13:58:50;;;;;;;3.03;0.77;;;;;;;;;;5043286;28;21607;-82
2023/06/03 14:01:18;;;;;;;2.73;0.70;;;;;;;;;;5044549;28;20462;-81
2023/06/03 14:03:47;;;;;;;6.43;0.90;;;;;;;;;;5043272;28;20447;-83
2023/06/03 14:06:21;;;;;;;3.27;0.90;;;;;;;;;;5039924;28;20491;-85
2023/06/03 14:08:53;;;;;;;3.73;0.70;;;;;;;;;;5040808;28;20454;-81
2023/06/03 14:11:21;;;;;;;4.13;1.10;;;;;;;;;;5032679;28;20467;-81
2023/06/03 14:13:49;;;;;;;4.43;1.50;;;;;;;;;;5041111;28;20719;-81
2023/06/03 14:16:16;;;;;;;3.43;1.20;;;;;;;;;;5044146;28;20474;-82
2023/06/03 14:18:47;;;;;;;3.20;1.10;;;;;;;;;;5039767;28;20533;-81
2023/06/03 14:24:06;;;;;;;6.43;2.30;;;;;;;;;;5015640;28;20451;-81
2023/06/03 14:26:35;;;;;;;3.23;0.80;;;;;;;;;;5041500;28;20494;-80
2023/06/03 14:29:07;;;;;;;3.90;0.90;;;;;;;;;;5041927;28;20490;-79
2023/06/03 14:31:34;;;;;;;11.23;9.47;;;;;;;;;;5042695;28;20459;-82
2023/06/03 14:34:04;;;;;;;2.90;0.70;;;;;;;;;;5038206;28;20713;-81
2023/06/03 14:36:35;;;;;;;6.13;1.90;;;;;;;;;;5038164;28;20465;-81
2023/06/03 14:39:03;;;;;;;3.90;1.40;;;;;;;;;;5022983;28;20464;-82
2023/06/03 14:41:31;;;;;;;3.10;0.63;;;;;;;;;;5036660;28;20479;-80
2023/06/03 14:43:58;;;;;;;3.00;0.80;;;;;;;;;;5036419;28;20468;-81
2023/06/03 14:46:27;;;;;;;3.00;0.70;;;;;;;;;;5037545;28;20550;-80
2023/06/03 14:48:55;;;;;;;3.50;1.07;;;;;;;;;;5042831;28;20513;-82
2023/06/03 14:51:25;;;;;;;3.03;0.87;;;;;;;;;;5044695;28;20477;-80
2023/06/03 14:53:52;;;;;;;3.00;0.90;;;;;;;;;;5041807;28;20451;-80
2023/06/03 14:56:21;;;;;;;3.60;0.80;;;;;;;;;;5045602;28;20451;-81
2023/06/03 14:58:49;;;;;;;2.80;0.70;;;;;;;;;;5043773;28;20447;-81
2023/06/03 15:01:17;;;;;;;3.00;0.80;;;;;;;;;;5044480;28;20454;-81
2023/06/03 15:03:49;;;;;;;7.57;2.37;;;;;;;;;;5039433;28;20459;-79
2023/06/03 15:06:17;;;;;;;8.83;4.97;;;;;;;;;;5039693;28;20474;-82
2023/06/03 15:08:47;;;;;;;5.70;2.17;;;;;;;;;;5045300;28;20455;-79
2023/06/03 15:11:17;;;;;;;2.97;0.97;;;;;;;;;;5042969;28;20513;-80
2023/06/03 15:13:49;;;;;;;5.40;1.20;;;;;;;;;;5042611;28;20459;-81